Terminal Aerodrome Forecast
Issued by NWS

Home | Current Version | Previous Version | Graphics & Text | Print | Product List | Glossary On
Versions: 1 2 3 4 5 6 7 8 9 10 11 12 13 14 15 16 17 18 19 20 21 22 23 24 25
626
FTUS43 KICT 241902 AAA
TAFRSL
TAF AMD
KRSL 241902Z 2419/2518 29008KT 4SM BR BKN004
      TEMPO 2419/2420 1/4SM FG OVC003
     FM242000 31015KT P6SM BKN008
     FM242200 30014KT P6SM SCT150
     FM251400 22005KT P6SM SCT150=

USA.gov is the U.S. government's official web portal to all federal, state and local government web resources and services.